createdAt,value
2018-05-13T00:00:15.141Z,8.57
2018-05-13T00:02:43.443Z,8.77
2018-05-13T00:05:11.052Z,10.00
2018-05-13T00:07:39.274Z,9.90
2018-05-13T00:10:07.566Z,9.73
2018-05-13T00:12:35.116Z,11.23
2018-05-13T00:15:02.639Z,12.53
2018-05-13T00:17:30.277Z,13.27
2018-05-13T00:19:57.918Z,14.60
2018-05-13T00:22:25.450Z,14.87
2018-05-13T00:24:53.762Z,15.87
2018-05-13T00:27:21.308Z,15.57
2018-05-13T00:29:48.958Z,17.07
2018-05-13T00:32:17.250Z,17.00
2018-05-13T00:34:45.010Z,17.20
2018-05-13T00:37:12.580Z,18.03
2018-05-13T00:39:40.106Z,17.80
2018-05-13T00:42:08.402Z,19.03
2018-05-13T00:44:35.928Z,17.90
2018-05-13T00:47:03.442Z,19.07
2018-05-13T00:49:30.993Z,19.87
2018-05-13T00:51:58.662Z,19.43
2018-05-13T00:54:38.305Z,19.57
2018-05-13T00:57:05.831Z,19.90
2018-05-13T00:59:34.123Z,20.07
2018-05-13T01:02:01.667Z,20.07
2018-05-13T01:04:29.971Z,19.93
2018-05-13T01:06:57.495Z,20.57
2018-05-13T01:09:26.523Z,21.47
2018-05-13T01:11:54.058Z,21.30
2018-05-13T01:14:22.373Z,21.53
2018-05-13T01:16:49.937Z,21.63
2018-05-13T01:19:17.457Z,21.13
2018-05-13T01:21:45.765Z,23.27
2018-05-13T01:24:13.324Z,21.63
2018-05-13T01:26:40.877Z,22.57
2018-05-13T01:29:08.406Z,22.23
2018-05-13T01:31:35.939Z,22.63
2018-05-13T01:34:03.559Z,24.40
2018-05-13T01:36:31.127Z,24.40
2018-05-13T01:38:58.648Z,24.10
2018-05-13T01:41:26.937Z,23.70
2018-05-13T01:43:55.227Z,26.07
2018-05-13T01:46:22.783Z,24.70
2018-05-13T01:48:50.312Z,25.43
2018-05-13T01:51:17.840Z,26.47
2018-05-13T01:53:45.381Z,26.03
2018-05-13T01:56:12.941Z,27.83
2018-05-13T01:58:40.461Z,27.17
2018-05-13T02:01:08.062Z,28.30
2018-05-13T02:03:35.593Z,27.70
2018-05-13T02:06:03.876Z,28.27
2018-05-13T02:08:32.169Z,26.90
2018-05-13T02:10:59.725Z,27.77
2018-05-13T02:13:27.290Z,26.63
2018-05-13T02:15:54.825Z,26.77
2018-05-13T02:18:23.110Z,27.40
2018-05-13T02:20:51.399Z,26.90
2018-05-13T02:23:18.973Z,26.43
2018-05-13T02:25:46.484Z,26.97
2018-05-13T02:28:14.096Z,27.27
2018-05-13T02:30:41.632Z,27.53
2018-05-13T02:33:09.937Z,26.53
2018-05-13T02:35:37.457Z,25.93
2018-05-13T02:38:05.867Z,25.77
2018-05-13T02:40:33.387Z,26.23
2018-05-13T02:43:00.908Z,24.67
2018-05-13T02:45:28.475Z,24.20
2018-05-13T02:47:56.004Z,24.43
2018-05-13T02:50:23.521Z,26.00
2018-05-13T02:52:51.047Z,25.23
2018-05-13T02:55:18.583Z,26.07
2018-05-13T02:57:46.139Z,27.47
2018-05-13T03:00:13.696Z,28.67
2018-05-13T03:02:41.255Z,26.43
2018-05-13T03:05:08.827Z,30.37
2018-05-13T03:07:36.357Z,30.60
2018-05-13T03:10:04.636Z,32.33
2018-05-13T03:12:32.933Z,32.10
2018-05-13T03:15:00.497Z,32.63
2018-05-13T03:17:28.065Z,32.07
2018-05-13T03:19:55.595Z,33.03
2018-05-13T03:22:23.892Z,32.67
2018-05-13T03:24:51.419Z,33.80
2018-05-13T03:27:19.010Z,34.60
2018-05-13T03:29:46.577Z,33.50
2018-05-13T03:32:14.102Z,35.17
2018-05-13T03:34:41.638Z,34.20
2018-05-13T03:37:09.175Z,34.57
2018-05-13T03:39:36.699Z,35.17
2018-05-13T03:42:05.005Z,35.83
2018-05-13T03:44:32.545Z,37.30
2018-05-13T03:47:00.053Z,37.67
2018-05-13T03:49:27.690Z,37.93
2018-05-13T03:51:55.228Z,38.80
2018-05-13T03:54:22.792Z,38.40
2018-05-13T03:56:50.347Z,37.97
2018-05-13T03:59:17.922Z,38.20
2018-05-13T04:01:45.485Z,37.13
2018-05-13T04:04:13.004Z,37.93
2018-05-13T04:06:43.290Z,38.60
2018-05-13T04:09:22.867Z,37.90
2018-05-13T04:12:02.162Z,38.57
2018-05-13T04:14:41.638Z,37.73
2018-05-13T04:17:11.276Z,38.57
2018-05-13T04:19:38.798Z,38.30
2018-05-13T04:22:06.520Z,38.53
2018-05-13T04:24:34.060Z,38.93
2018-05-13T04:27:01.585Z,39.80
2018-05-13T04:29:29.107Z,38.80
2018-05-13T04:31:56.641Z,39.20
2018-05-13T04:34:24.161Z,38.03
2018-05-13T04:36:51.887Z,39.63
2018-05-13T04:39:19.429Z,39.07
2018-05-13T04:41:46.992Z,41.97
2018-05-13T04:44:14.550Z,42.07
2018-05-13T04:46:42.101Z,42.27
2018-05-13T04:49:10.493Z,42.33
2018-05-13T04:51:38.047Z,42.60
2018-05-13T04:54:05.575Z,44.97
2018-05-13T04:56:33.093Z,42.53
2018-05-13T04:59:00.646Z,41.73
2018-05-13T05:01:28.185Z,44.40
2018-05-13T05:03:55.701Z,43.03
2018-05-13T05:06:23.306Z,43.27
2018-05-13T05:08:50.840Z,42.73
2018-05-13T05:11:19.125Z,42.43
2018-05-13T05:13:47.422Z,43.90
2018-05-13T05:16:14.981Z,41.90
2018-05-13T05:18:42.497Z,42.67
2018-05-13T05:21:10.776Z,40.10
2018-05-13T05:23:38.389Z,40.50
2018-05-13T05:26:05.945Z,39.73
2018-05-13T05:28:33.489Z,38.53
2018-05-13T05:31:01.075Z,36.27
2018-05-13T05:33:28.608Z,36.53
2018-05-13T05:35:56.917Z,37.53
2018-05-13T05:38:24.444Z,37.60
2018-05-13T05:40:52.748Z,35.87
2018-05-13T05:43:20.292Z,36.33
2018-05-13T05:45:47.836Z,36.67
2018-05-13T05:48:16.252Z,37.70
2018-05-13T05:50:43.779Z,35.97
2018-05-13T05:53:12.078Z,36.20
2018-05-13T05:55:39.604Z,35.63
2018-05-13T05:58:07.910Z,34.73
2018-05-13T06:00:35.462Z,34.00
2018-05-13T06:03:02.987Z,33.70
2018-05-13T06:05:30.598Z,31.63
2018-05-13T06:07:58.140Z,29.93
2018-05-13T06:10:26.534Z,30.30
2018-05-13T06:12:54.105Z,29.63
2018-05-13T06:15:21.645Z,27.83
2018-05-13T06:17:49.164Z,27.13
2018-05-13T06:20:16.693Z,25.93
2018-05-13T06:22:44.222Z,26.17
2018-05-13T06:25:11.803Z,26.67
2018-05-13T06:27:40.055Z,26.83
2018-05-13T06:30:08.446Z,25.57
2018-05-13T06:32:35.963Z,25.63
2018-05-13T06:35:03.494Z,24.97
2018-05-13T06:37:31.210Z,25.47
2018-05-13T06:39:59.505Z,24.73
2018-05-13T06:42:27.093Z,24.13
2018-05-13T06:44:54.737Z,24.67
2018-05-13T06:47:22.270Z,25.37
2018-05-13T06:49:50.579Z,26.20
2018-05-13T06:52:18.134Z,23.87
2018-05-13T06:54:45.698Z,25.20
2018-05-13T06:57:13.268Z,24.20
2018-05-13T06:59:40.799Z,23.77
2018-05-13T07:02:08.326Z,23.40
2018-05-13T07:04:35.860Z,24.50
2018-05-13T07:07:03.401Z,24.57
2018-05-13T07:09:30.962Z,22.77
2018-05-13T07:11:58.519Z,25.13
2018-05-13T07:14:26.062Z,24.97
2018-05-13T07:16:53.592Z,26.37
2018-05-13T07:19:21.196Z,26.83
2018-05-13T07:21:48.763Z,26.80
2018-05-13T07:24:16.317Z,26.77
2018-05-13T07:26:47.787Z,26.57
2018-05-13T07:29:17.946Z,25.07
2018-05-13T07:31:45.553Z,24.90
2018-05-13T07:34:13.126Z,25.73
2018-05-13T07:36:40.673Z,26.07
2018-05-13T07:39:08.191Z,24.40
2018-05-13T07:41:35.801Z,23.13
2018-05-13T07:44:03.365Z,23.30
2018-05-13T07:46:30.888Z,22.10
2018-05-13T07:48:59.169Z,22.57
2018-05-13T07:51:27.679Z,22.43
2018-05-13T07:53:55.206Z,21.80
2018-05-13T07:56:23.508Z,22.00
2018-05-13T07:58:51.052Z,22.40
2018-05-13T08:01:19.439Z,22.73
2018-05-13T08:03:46.965Z,22.30
2018-05-13T08:06:14.577Z,22.13
2018-05-13T08:08:42.144Z,21.90
2018-05-13T08:11:11.669Z,22.73
2018-05-13T08:13:39.308Z,22.83
2018-05-13T08:16:06.838Z,23.90
2018-05-13T08:18:34.369Z,21.60
2018-05-13T08:21:01.926Z,21.77
2018-05-13T08:23:29.452Z,23.07
2018-05-13T08:25:56.985Z,21.10
2018-05-13T08:28:24.515Z,19.60
2018-05-13T08:30:52.116Z,20.07
2018-05-13T08:33:19.638Z,20.27
2018-05-13T08:35:47.233Z,20.23
2018-05-13T08:38:14.751Z,20.57
2018-05-13T08:40:42.441Z,20.80
2018-05-13T08:43:10.016Z,21.17
2018-05-13T08:45:37.691Z,20.60
2018-05-13T08:48:05.219Z,22.57
2018-05-13T08:50:33.529Z,22.87
2018-05-13T08:53:01.047Z,23.97
2018-05-13T08:55:29.359Z,25.27
2018-05-13T08:57:56.889Z,24.97
2018-05-13T09:00:25.175Z,26.73
2018-05-13T09:02:53.468Z,26.90
2018-05-13T09:05:21.029Z,26.03
2018-05-13T09:07:48.544Z,27.60
2018-05-13T09:10:16.867Z,29.47
2018-05-13T09:12:44.408Z,28.63
2018-05-13T09:15:12.706Z,28.60
2018-05-13T09:17:40.229Z,29.03
2018-05-13T09:20:07.831Z,29.90
2018-05-13T09:22:35.357Z,29.70
2018-05-13T09:25:03.650Z,28.67
2018-05-13T09:27:31.969Z,27.90
2018-05-13T09:29:59.486Z,27.67
2018-05-13T09:32:27.904Z,28.30
2018-05-13T09:34:55.453Z,32.13
2018-05-13T09:37:22.979Z,31.67
2018-05-13T09:39:51.289Z,32.30
2018-05-13T09:42:18.832Z,31.33
2018-05-13T09:44:46.377Z,30.40
2018-05-13T09:47:14.690Z,32.47
2018-05-13T09:49:42.251Z,33.90
2018-05-13T09:52:09.783Z,32.73
2018-05-13T09:54:39.039Z,33.83
2018-05-13T09:57:07.479Z,32.77
2018-05-13T09:59:34.992Z,31.77
2018-05-13T10:02:02.629Z,31.33
2018-05-13T10:04:30.269Z,29.50
2018-05-13T10:06:57.846Z,29.23
2018-05-13T10:09:25.395Z,29.67
2018-05-13T10:11:52.940Z,31.37
2018-05-13T10:14:20.455Z,28.90
2018-05-13T10:16:48.084Z,27.43
2018-05-13T10:19:15.625Z,27.43
2018-05-13T10:21:43.173Z,24.20
2018-05-13T10:24:10.697Z,22.60
2018-05-13T10:26:38.237Z,22.03
2018-05-13T10:29:05.874Z,20.60
2018-05-13T10:31:33.436Z,20.27
2018-05-13T10:34:00.984Z,17.80
2018-05-13T10:36:28.622Z,18.60
2018-05-13T10:38:56.117Z,17.23
2018-05-13T10:41:23.657Z,17.60
2018-05-13T10:43:51.245Z,18.77
2018-05-13T10:46:18.794Z,17.90
2018-05-13T10:48:46.345Z,19.77
2018-05-13T10:51:13.919Z,19.90
2018-05-13T10:53:41.577Z,20.33
2018-05-13T10:56:09.117Z,20.37
2018-05-13T10:58:37.391Z,21.27
2018-05-13T11:01:05.683Z,23.20
2018-05-13T11:03:33.223Z,22.30
2018-05-13T11:06:01.503Z,22.20
2018-05-13T11:08:29.905Z,20.20
2018-05-13T11:10:57.427Z,21.73
2018-05-13T11:13:24.952Z,21.90
2018-05-13T11:15:52.467Z,23.47
2018-05-13T11:18:20.775Z,20.67
2018-05-13T11:20:48.320Z,22.97
2018-05-13T11:23:15.841Z,24.53
2018-05-13T11:25:43.435Z,24.33
2018-05-13T11:28:10.963Z,23.83
2018-05-13T11:30:38.497Z,22.93
2018-05-13T11:33:06.122Z,24.83
2018-05-13T11:35:33.707Z,23.73
2018-05-13T11:38:01.253Z,22.83
2018-05-13T11:40:28.823Z,25.60
2018-05-13T11:42:56.360Z,27.43
2018-05-13T11:45:23.917Z,28.83
2018-05-13T11:47:51.499Z,29.97
2018-05-13T11:50:19.017Z,29.80
2018-05-13T11:52:47.311Z,31.23
2018-05-13T11:55:14.885Z,29.93
2018-05-13T11:57:42.418Z,30.80
2018-05-13T12:00:10.709Z,30.07
2018-05-13T12:02:39.019Z,30.03
2018-05-13T12:05:06.555Z,31.10
2018-05-13T12:07:34.097Z,30.73
2018-05-13T12:10:02.563Z,31.07
2018-05-13T12:12:30.117Z,28.27
2018-05-13T12:14:57.737Z,29.63
2018-05-13T12:17:25.270Z,28.80
2018-05-13T12:19:52.804Z,27.67
2018-05-13T12:22:20.372Z,30.27
2018-05-13T12:24:48.665Z,29.23
2018-05-13T12:27:16.195Z,29.77
2018-05-13T12:29:43.806Z,29.13
2018-05-13T12:32:11.373Z,26.27
2018-05-13T12:34:38.888Z,26.93
2018-05-13T12:37:07.197Z,30.73
2018-05-13T12:39:34.765Z,31.77
2018-05-13T12:42:02.320Z,35.83
2018-05-13T12:44:29.836Z,36.10
2018-05-13T12:46:57.369Z,34.43
2018-05-13T12:49:24.900Z,36.13
2018-05-13T12:51:52.420Z,34.33
2018-05-13T12:54:20.718Z,36.23
2018-05-13T12:56:49.116Z,34.07
2018-05-13T12:59:16.781Z,37.70
2018-05-13T13:01:44.444Z,36.53
2018-05-13T13:04:11.964Z,35.23
2018-05-13T13:06:40.263Z,35.37
2018-05-13T13:09:08.674Z,33.93
2018-05-13T13:11:36.324Z,33.97
2018-05-13T13:14:03.845Z,34.80
2018-05-13T13:16:32.141Z,33.20
2018-05-13T13:19:00.545Z,32.87
2018-05-13T13:21:28.296Z,34.50
2018-05-13T13:23:55.833Z,34.97
2018-05-13T13:26:24.139Z,34.87
2018-05-13T13:28:51.664Z,35.43
2018-05-13T13:31:19.960Z,34.93
2018-05-13T13:33:48.361Z,34.20
2018-05-13T13:36:17.248Z,35.67
2018-05-13T13:38:44.817Z,34.83
2018-05-13T13:41:12.342Z,35.27
2018-05-13T13:43:40.639Z,33.87
2018-05-13T13:46:08.170Z,34.33
2018-05-13T13:48:36.479Z,34.63
2018-05-13T13:51:04.004Z,33.80
2018-05-13T13:53:31.568Z,33.03
2018-05-13T13:55:59.887Z,32.13
2018-05-13T13:58:27.449Z,35.37
2018-05-13T14:00:54.977Z,34.27
2018-05-13T14:03:23.272Z,33.40
2018-05-13T14:05:50.799Z,34.37
2018-05-13T14:08:18.350Z,34.20
2018-05-13T14:10:45.882Z,31.87
2018-05-13T14:13:13.423Z,32.30
2018-05-13T14:15:40.968Z,33.17
2018-05-13T14:18:08.489Z,32.80
2018-05-13T14:20:36.143Z,32.37
2018-05-13T14:23:03.663Z,31.23
2018-05-13T14:25:31.229Z,30.37
2018-05-13T14:27:58.748Z,31.53
2018-05-13T14:30:27.061Z,32.13
2018-05-13T14:32:54.665Z,31.37
2018-05-13T14:35:22.139Z,30.73
2018-05-13T14:37:50.429Z,30.90
2018-05-13T14:40:18.712Z,29.03
2018-05-13T14:42:46.999Z,27.00
2018-05-13T14:45:14.675Z,28.43
2018-05-13T14:47:42.126Z,27.23
2018-05-13T14:50:09.688Z,27.70
2018-05-13T14:52:37.259Z,28.20
2018-05-13T14:55:04.789Z,28.40
2018-05-13T14:57:33.075Z,28.50
2018-05-13T15:00:00.664Z,26.60
2018-05-13T15:02:28.209Z,24.70
2018-05-13T15:04:55.793Z,25.20
2018-05-13T15:07:30.601Z,26.10
2018-05-13T15:09:58.118Z,24.57
2018-05-13T15:12:25.637Z,24.40
2018-05-13T15:14:53.293Z,26.47
2018-05-13T15:17:20.825Z,28.20
2018-05-13T15:19:49.120Z,28.57
2018-05-13T15:22:16.651Z,27.87
2018-05-13T15:24:44.938Z,28.17
2018-05-13T15:27:12.457Z,26.97
2018-05-13T15:29:39.993Z,26.30
2018-05-13T15:32:07.517Z,26.87
2018-05-13T15:34:35.912Z,22.10
2018-05-13T15:37:03.466Z,23.90
2018-05-13T15:39:31.035Z,23.33
2018-05-13T15:41:58.689Z,25.00
2018-05-13T15:44:26.232Z,25.30
2018-05-13T15:46:54.537Z,19.37
2018-05-13T15:49:22.054Z,22.10
2018-05-13T15:51:49.664Z,19.27
2018-05-13T15:54:17.210Z,20.27
2018-05-13T15:56:44.740Z,20.97
2018-05-13T15:59:13.166Z,19.47
2018-05-13T16:05:02.006Z,17.17
2018-05-13T16:07:30.300Z,17.37
2018-05-13T16:09:57.880Z,17.53
2018-05-13T16:12:25.409Z,17.80
2018-05-13T16:14:54.712Z,18.77
2018-05-13T16:17:23.002Z,20.27
2018-05-13T16:19:50.567Z,19.97
2018-05-13T16:22:18.092Z,21.53
2018-05-13T16:24:45.617Z,21.23
2018-05-13T16:27:13.263Z,21.93
2018-05-13T16:29:40.856Z,23.23
2018-05-13T16:32:08.343Z,21.30
2018-05-13T16:34:36.645Z,20.70
2018-05-13T16:37:04.188Z,19.97
2018-05-13T16:39:32.500Z,20.27
2018-05-13T16:42:00.046Z,19.77
2018-05-13T16:44:27.594Z,13.83
2018-05-13T16:46:55.176Z,14.30
2018-05-13T16:49:22.714Z,14.77
2018-05-13T16:51:50.254Z,15.17
2018-05-13T16:54:18.539Z,13.10
2018-05-13T16:56:46.953Z,14.73
2018-05-13T16:59:14.521Z,12.07
2018-05-13T17:01:42.045Z,12.37
2018-05-13T17:04:10.368Z,12.33
2018-05-13T17:06:37.910Z,12.27
2018-05-13T17:09:05.443Z,11.90
2018-05-13T17:11:33.763Z,11.70
2018-05-13T17:14:01.309Z,11.10
2018-05-13T17:16:28.865Z,11.07
2018-05-13T17:18:56.413Z,10.33
2018-05-13T17:21:23.949Z,11.30
2018-05-13T17:23:52.268Z,11.67
2018-05-13T17:26:19.794Z,11.70
2018-05-13T17:28:48.085Z,12.63
2018-05-13T17:31:15.664Z,11.50
2018-05-13T17:33:43.218Z,11.13
2018-05-13T17:36:10.769Z,11.47
2018-05-13T17:38:38.315Z,11.10
2018-05-13T17:41:06.809Z,10.23
2018-05-13T17:43:34.280Z,11.70
2018-05-13T17:46:01.837Z,11.00
2018-05-13T17:48:29.375Z,10.77
2018-05-13T17:50:57.675Z,10.53
2018-05-13T17:53:25.206Z,10.63
2018-05-13T17:55:53.511Z,11.97
2018-05-13T17:58:21.049Z,12.70
2018-05-13T18:00:48.639Z,11.20
2018-05-13T18:03:16.243Z,11.27
2018-05-13T18:05:43.742Z,11.27
2018-05-13T18:08:11.280Z,12.30
2018-05-13T18:10:39.691Z,11.43
2018-05-13T18:13:07.229Z,11.33
2018-05-13T18:15:35.554Z,12.10
2018-05-13T18:18:03.067Z,11.83
2018-05-13T18:20:31.376Z,11.43
2018-05-13T18:22:59.005Z,11.73
2018-05-13T18:25:27.422Z,11.80
2018-05-13T18:27:55.042Z,12.57
2018-05-13T18:30:22.522Z,13.00
2018-05-13T18:32:50.064Z,11.53
2018-05-13T18:35:18.364Z,13.27
2018-05-13T18:37:45.888Z,13.73
2018-05-13T18:40:13.482Z,13.40
2018-05-13T18:42:41.011Z,13.00
2018-05-13T18:45:08.531Z,13.73
2018-05-13T18:47:36.060Z,13.63
2018-05-13T18:50:03.583Z,13.13
2018-05-13T18:52:31.122Z,13.63
2018-05-13T18:54:58.759Z,13.97
2018-05-13T18:57:26.277Z,14.00
2018-05-13T18:59:54.708Z,12.80
2018-05-13T19:02:22.237Z,13.53
2018-05-13T19:04:49.814Z,13.43
2018-05-13T19:07:17.375Z,13.00
2018-05-13T19:09:44.921Z,13.03
2018-05-13T19:12:12.504Z,11.77
2018-05-13T19:14:40.029Z,13.20
2018-05-13T19:17:08.332Z,13.37
2018-05-13T19:19:35.902Z,14.10
2018-05-13T19:22:03.441Z,14.70
2018-05-13T19:24:30.977Z,13.40
2018-05-13T19:26:59.278Z,14.50
2018-05-13T19:29:26.855Z,14.50
2018-05-13T19:31:54.425Z,13.67
2018-05-13T19:34:21.957Z,14.50
2018-05-13T19:36:49.482Z,14.47
2018-05-13T19:39:17.028Z,15.53
2018-05-13T19:41:44.659Z,15.10
2018-05-13T19:44:12.206Z,14.83
2018-05-13T19:46:39.791Z,16.23
2018-05-13T19:49:07.331Z,18.03
2018-05-13T19:51:34.849Z,16.97
2018-05-13T19:54:02.401Z,17.90
2018-05-13T19:56:30.018Z,17.83
2018-05-13T19:58:57.543Z,16.50
2018-05-13T20:01:25.854Z,17.40
2018-05-13T20:03:53.430Z,18.00
2018-05-13T20:06:21.066Z,17.13
2018-05-13T20:08:48.647Z,19.70
2018-05-13T20:11:16.195Z,20.53
2018-05-13T20:13:43.715Z,21.20
2018-05-13T20:16:12.132Z,21.80
2018-05-13T20:18:39.643Z,21.57
2018-05-13T20:21:07.247Z,22.00
2018-05-13T20:23:34.818Z,21.43
2018-05-13T20:26:02.380Z,23.33
2018-05-13T20:28:29.932Z,21.43
2018-05-13T20:30:57.471Z,21.43
2018-05-13T20:33:25.754Z,19.87
2018-05-13T20:35:54.109Z,22.10
2018-05-13T20:38:21.590Z,20.93
2018-05-13T20:40:50.103Z,23.53
2018-05-13T20:43:17.629Z,23.13
2018-05-13T20:45:45.915Z,24.77
2018-05-13T20:48:13.442Z,23.47
2018-05-13T20:50:41.733Z,22.47
2018-05-13T20:53:10.050Z,24.53
2018-05-13T20:55:37.591Z,20.17
2018-05-13T20:58:05.130Z,24.23
2018-05-13T21:00:33.430Z,24.07
2018-05-13T21:03:00.956Z,24.93
2018-05-13T21:05:28.503Z,24.63
2018-05-13T21:07:56.035Z,25.97
2018-05-13T21:10:23.579Z,24.90
2018-05-13T21:12:51.091Z,25.07
2018-05-13T21:15:18.711Z,24.97
2018-05-13T21:17:46.239Z,25.50
2018-05-13T21:20:14.524Z,24.57
2018-05-13T21:22:42.098Z,25.20
2018-05-13T21:25:09.621Z,24.60
2018-05-13T21:27:37.940Z,26.63
2018-05-13T21:30:05.549Z,26.37
2018-05-13T21:32:33.031Z,24.67
2018-05-13T21:35:01.348Z,21.93
2018-05-13T21:37:28.876Z,26.03
2018-05-13T21:39:56.401Z,25.77
2018-05-13T21:42:24.018Z,24.93
2018-05-13T21:44:51.564Z,24.30
2018-05-13T21:47:19.098Z,26.00
2018-05-13T21:49:47.517Z,27.60
2018-05-13T21:52:15.084Z,28.07
2018-05-13T21:54:42.612Z,26.60
2018-05-13T21:57:11.028Z,27.23
2018-05-13T21:59:38.681Z,26.20
2018-05-13T22:02:06.210Z,26.90
2018-05-13T22:04:34.509Z,26.67
2018-05-13T22:07:02.084Z,23.10
2018-05-13T22:09:29.601Z,27.30
2018-05-13T22:11:57.887Z,27.60
2018-05-13T22:14:26.209Z,26.93
2018-05-13T22:16:53.761Z,26.13
2018-05-13T22:19:21.275Z,26.80
2018-05-13T22:21:49.600Z,26.87
2018-05-13T22:24:17.145Z,28.57
2018-05-13T22:26:44.666Z,28.37
2018-05-13T22:29:12.201Z,29.50
2018-05-13T22:31:39.817Z,27.60
2018-05-13T22:34:07.383Z,30.10
2018-05-13T22:36:34.963Z,28.67
2018-05-13T22:39:02.511Z,29.37
2018-05-13T22:41:30.059Z,31.23
2018-05-13T22:43:57.619Z,28.53
2018-05-13T22:46:25.140Z,28.30
2018-05-13T22:48:52.661Z,30.23
2018-05-13T22:51:20.196Z,28.50
2018-05-13T22:53:47.872Z,28.17
2018-05-13T22:56:15.421Z,28.33
2018-05-13T22:58:42.990Z,27.60
2018-05-13T23:01:10.535Z,28.40
2018-05-13T23:03:38.816Z,24.97
2018-05-13T23:06:06.352Z,25.50
2018-05-13T23:08:34.665Z,26.40
2018-05-13T23:11:02.222Z,25.90
2018-05-13T23:13:29.747Z,26.63
2018-05-13T23:15:57.269Z,25.90
2018-05-13T23:18:24.809Z,23.70
2018-05-13T23:20:52.359Z,23.13
2018-05-13T23:23:19.876Z,25.00
2018-05-13T23:25:47.478Z,24.40
2018-05-13T23:28:15.004Z,24.07
2018-05-13T23:30:43.292Z,24.27
2018-05-13T23:33:11.588Z,21.57
2018-05-13T23:35:39.159Z,22.97
2018-05-13T23:38:06.668Z,23.63
2018-05-13T23:40:34.196Z,22.27
2018-05-13T23:43:01.736Z,23.37
2018-05-13T23:45:29.260Z,23.03
2018-05-13T23:47:57.539Z,23.23
2018-05-13T23:50:25.837Z,21.83
2018-05-13T23:52:53.354Z,20.53
2018-05-13T23:55:20.984Z,22.70
2018-05-13T23:57:48.516Z,20.53
